Time,TemperatureF,DewpointF,PressureIn,WindDirection,WindDirectionDegrees,WindSpeedMPH,WindSpeedGustMPH,Humidity,HourlyPrecipIn,Conditions,Clouds,dailyrainin,SoftwareType,DateUTC
2013-03-13 00:04:00,45.0,28.4,30.04,South,180,0.0,-999.0,52,-99.99,,,0.00,Acu-Link.com,2013-03-13 06:04:00,
2013-03-13 00:20:00,44.8,28.3,30.03,SE,135,0.0,-999.0,52,-99.99,,,0.00,Acu-Link.com,2013-03-13 06:20:00,
2013-03-13 00:35:00,44.1,28.5,30.03,SW,225,0.0,-999.0,54,-99.99,,,0.00,Acu-Link.com,2013-03-13 06:35:00,
2013-03-13 00:50:00,43.5,28.0,30.02,West,270,0.0,-999.0,54,-99.99,,,0.00,Acu-Link.com,2013-03-13 06:50:00,
2013-03-13 01:06:00,43.5,28.0,30.03,SSE,157,0.0,-999.0,54,-99.99,,,0.00,Acu-Link.com,2013-03-13 07:06:00,
2013-03-13 01:21:00,42.3,27.7,30.03,SSW,202,0.0,-999.0,56,-99.99,,,0.00,Acu-Link.com,2013-03-13 07:21:00,
2013-03-13 01:36:00,41.5,27.4,30.03,SW,225,0.0,-999.0,57,-99.99,,,0.00,Acu-Link.com,2013-03-13 07:36:00,
2013-03-13 01:52:00,41.4,27.7,30.04,SSW,202,0.0,-999.0,58,-99.99,,,0.00,Acu-Link.com,2013-03-13 07:52:00,
2013-03-13 02:22:00,42.1,27.5,30.06,South,180,1.1,-999.0,56,-99.99,,,0.00,Acu-Link.com,2013-03-13 08:22:00,
2013-03-13 02:37:00,41.4,26.9,30.07,NW,315,0.0,-999.0,56,-99.99,,,0.00,Acu-Link.com,2013-03-13 08:37:00,
2013-03-13 02:53:00,40.6,27.0,30.07,NE,45,0.0,-999.0,58,-99.99,,,0.00,Acu-Link.com,2013-03-13 08:53:00,
2013-03-13 03:08:00,40.5,27.7,30.08,SSE,157,0.0,-999.0,60,-99.99,,,0.00,Acu-Link.com,2013-03-13 09:08:00,
2013-03-13 03:23:00,41.9,29.0,30.07,South,180,1.1,-999.0,60,-99.99,,,0.00,Acu-Link.com,2013-03-13 09:23:00,
2013-03-13 03:39:00,41.2,28.4,30.07,SE,135,0.0,-999.0,60,-99.99,,,0.00,Acu-Link.com,2013-03-13 09:39:00,
2013-03-13 03:54:00,39.9,27.6,30.07,WSW,247,0.0,-999.0,61,-99.99,,,0.00,Acu-Link.com,2013-03-13 09:54:00,
2013-03-13 04:09:00,38.8,27.3,30.08,WSW,247,0.0,-999.0,63,-99.99,,,0.00,Acu-Link.com,2013-03-13 10:09:00,
2013-03-13 04:24:00,37.9,27.2,30.06,SW,225,0.0,-999.0,65,-99.99,,,0.00,Acu-Link.com,2013-03-13 10:24:00,
2013-03-13 04:39:00,37.4,27.1,30.07,ENE,67,0.0,-999.0,66,-99.99,,,0.00,Acu-Link.com,2013-03-13 10:39:00,
2013-03-13 04:55:00,37.0,26.7,30.07,ESE,112,0.0,-999.0,66,-99.99,,,0.00,Acu-Link.com,2013-03-13 10:55:00,
2013-03-13 05:10:00,36.7,27.2,30.08,WSW,247,0.0,-999.0,68,-99.99,,,0.00,Acu-Link.com,2013-03-13 11:10:00,
2013-03-13 05:25:00,36.0,26.5,30.09,SE,135,0.0,-999.0,68,-99.99,,,0.00,Acu-Link.com,2013-03-13 11:25:00,
2013-03-13 05:56:00,34.7,26.3,30.09,ESE,112,0.0,-999.0,71,-99.99,,,0.00,Acu-Link.com,2013-03-13 11:56:00,
2013-03-13 06:11:00,34.3,25.9,30.09,South,180,0.0,-999.0,71,-99.99,,,0.00,Acu-Link.com,2013-03-13 12:11:00,
2013-03-13 06:26:00,33.6,25.9,30.09,SSE,157,0.0,-999.0,73,-99.99,,,0.00,Acu-Link.com,2013-03-13 12:26:00,
2013-03-13 06:42:00,33.3,25.6,30.09,SSE,157,0.0,-999.0,73,-99.99,,,0.00,Acu-Link.com,2013-03-13 12:42:00,
2013-03-13 06:57:00,32.9,25.2,30.10,SE,135,0.0,-999.0,73,-99.99,,,0.00,Acu-Link.com,2013-03-13 12:57:00,
2013-03-13 07:12:00,32.4,25.1,30.10,SW,225,0.0,-999.0,74,-99.99,,,0.00,Acu-Link.com,2013-03-13 13:12:00,
2013-03-13 07:27:00,31.8,25.4,30.11,ESE,112,0.0,-999.0,77,-99.99,,,0.00,Acu-Link.com,2013-03-13 13:27:00,
2013-03-13 07:42:00,32.0,25.6,30.11,West,270,0.0,-999.0,77,-99.99,,,0.00,Acu-Link.com,2013-03-13 13:42:00,
2013-03-13 07:58:00,32.9,26.5,30.12,NW,315,0.0,-999.0,77,-99.99,,,0.00,Acu-Link.com,2013-03-13 13:58:00,
2013-03-13 08:13:00,35.4,28.6,30.13,SW,225,0.0,-999.0,76,-99.99,,,0.00,Acu-Link.com,2013-03-13 14:13:00,
2013-03-13 08:28:00,39.4,30.4,30.14,SSW,202,0.0,-999.0,70,-99.99,,,0.00,Acu-Link.com,2013-03-13 14:28:00,
2013-03-13 08:44:00,41.7,30.8,30.15,West,270,2.2,-999.0,65,-99.99,,,0.00,Acu-Link.com,2013-03-13 14:44:00,
2013-03-13 12:26:00,68.9,35.3,30.10,North,0,2.7,-999.0,29,-99.99,,,0.00,Acu-Link.com,2013-03-13 18:26:00,
2013-03-13 12:42:00,66.9,33.6,30.10,SSE,157,0.0,-999.0,29,-99.99,,,0.00,Acu-Link.com,2013-03-13 18:42:00,
2013-03-13 12:57:00,69.6,34.1,30.10,NNW,337,0.0,-999.0,27,-99.99,,,0.00,Acu-Link.com,2013-03-13 18:57:00,
2013-03-13 13:12:00,68.0,33.7,30.10,NE,45,2.2,-999.0,28,-99.99,,,0.00,Acu-Link.com,2013-03-13 19:12:00,
2013-03-13 13:28:00,70.5,32.0,30.08,NNE,22,0.0,-999.0,24,-99.99,,,0.00,Acu-Link.com,2013-03-13 19:28:00,
2013-03-13 13:43:00,72.0,33.2,30.08,SSW,202,2.2,-999.0,24,-99.99,,,0.00,Acu-Link.com,2013-03-13 19:43:00,
2013-03-13 13:58:00,70.0,33.5,30.06,NNE,22,1.1,-999.0,26,-99.99,,,0.00,Acu-Link.com,2013-03-13 19:58:00,
2013-03-13 14:14:00,71.4,32.7,30.05,NNW,337,2.2,-999.0,24,-99.99,,,0.00,Acu-Link.com,2013-03-13 20:14:00,
2013-03-13 14:29:00,72.1,33.3,30.03,NNE,22,0.0,-999.0,24,-99.99,,,0.00,Acu-Link.com,2013-03-13 20:29:00,
2013-03-13 14:44:00,71.6,32.9,30.02,South,180,0.0,-999.0,24,-99.99,,,0.00,Acu-Link.com,2013-03-13 20:44:00,
2013-03-13 15:00:00,71.6,32.9,30.02,SSW,202,0.0,-999.0,24,-99.99,,,0.00,Acu-Link.com,2013-03-13 21:00:00,
2013-03-13 15:15:00,71.1,31.4,30.01,South,180,1.1,-999.0,23,-99.99,,,0.00,Acu-Link.com,2013-03-13 21:15:00,
2013-03-13 15:45:00,72.7,31.7,30.02,NE,45,2.2,-999.0,22,-99.99,,,0.00,Acu-Link.com,2013-03-13 21:45:00,
2013-03-13 16:16:00,72.7,29.3,30.02,West,270,3.7,-999.0,20,-99.99,,,0.00,Acu-Link.com,2013-03-13 22:16:00,
2013-03-13 16:31:00,73.6,30.1,30.00,NNE,22,1.7,-999.0,20,-99.99,,,0.00,Acu-Link.com,2013-03-13 22:31:00,
2013-03-13 16:47:00,73.4,29.9,29.99,SW,225,1.7,-999.0,20,-99.99,,,0.00,Acu-Link.com,2013-03-13 22:47:00,
2013-03-13 17:02:00,73.4,29.9,30.00,SW,225,0.0,-999.0,20,-99.99,,,0.00,Acu-Link.com,2013-03-13 23:02:00,
2013-03-13 17:17:00,71.8,29.8,29.99,South,180,0.0,-999.0,21,-99.99,,,0.00,Acu-Link.com,2013-03-13 23:17:00,
2013-03-13 17:32:00,72.9,29.5,30.00,West,270,0.0,-999.0,20,-99.99,,,0.00,Acu-Link.com,2013-03-13 23:32:00,
2013-03-13 17:48:00,72.5,29.1,29.99,SSW,202,1.7,-999.0,20,-99.99,,,0.00,Acu-Link.com,2013-03-13 23:48:00,
2013-03-13 18:03:00,71.1,29.2,30.00,ESE,112,1.1,-999.0,21,-99.99,,,0.00,Acu-Link.com,2013-03-14 00:03:00,
2013-03-13 18:18:00,70.3,28.5,29.98,ENE,67,0.0,-999.0,21,-99.99,,,0.00,Acu-Link.com,2013-03-14 00:18:00,
2013-03-13 18:33:00,70.5,28.7,29.98,SW,225,3.2,-999.0,21,-99.99,,,0.00,Acu-Link.com,2013-03-14 00:33:00,
2013-03-13 18:49:00,69.6,26.8,29.98,SSW,202,1.7,-999.0,20,-99.99,,,0.00,Acu-Link.com,2013-03-14 00:49:00,
2013-03-13 19:04:00,67.3,24.9,30.00,ESE,112,1.1,-999.0,20,-99.99,,,0.00,Acu-Link.com,2013-03-14 01:04:00,
2013-03-13 19:19:00,66.2,26.2,30.00,West,270,2.7,-999.0,22,-99.99,,,0.00,Acu-Link.com,2013-03-14 01:19:00,
2013-03-13 19:34:00,64.9,26.2,29.99,NE,45,1.7,-999.0,23,-99.99,,,0.00,Acu-Link.com,2013-03-14 01:34:00,
2013-03-13 19:50:00,63.9,25.4,30.01,SSW,202,1.7,-999.0,23,-99.99,,,0.00,Acu-Link.com,2013-03-14 01:50:00,
2013-03-13 20:05:00,62.8,24.5,30.00,SSE,157,0.0,-999.0,23,-99.99,,,0.00,Acu-Link.com,2013-03-14 02:05:00,
2013-03-13 20:20:00,61.7,24.5,30.01,South,180,0.0,-999.0,24,-99.99,,,0.00,Acu-Link.com,2013-03-14 02:20:00,
2013-03-13 20:36:00,60.6,25.5,30.01,East,90,0.0,-999.0,26,-99.99,,,0.00,Acu-Link.com,2013-03-14 02:36:00,
2013-03-13 20:51:00,59.0,25.1,30.03,WSW,247,0.0,-999.0,27,-99.99,,,0.00,Acu-Link.com,2013-03-14 02:51:00,
2013-03-13 21:06:00,57.4,25.4,30.04,SW,225,0.0,-999.0,29,-99.99,,,0.00,Acu-Link.com,2013-03-14 03:06:00,
2013-03-13 21:22:00,55.4,25.3,30.03,SSE,157,0.0,-999.0,31,-99.99,,,0.00,Acu-Link.com,2013-03-14 03:22:00,
2013-03-13 21:37:00,53.8,24.6,30.04,East,90,0.0,-999.0,32,-99.99,,,0.00,Acu-Link.com,2013-03-14 03:37:00,
2013-03-13 21:52:00,52.5,25.0,30.05,SSE,157,0.0,-999.0,34,-99.99,,,0.00,Acu-Link.com,2013-03-14 03:52:00,
2013-03-13 22:07:00,51.3,25.3,30.05,SSW,202,0.0,-999.0,36,-99.99,,,0.00,Acu-Link.com,2013-03-14 04:07:00,
2013-03-13 22:23:00,50.2,24.9,30.05,East,90,0.0,-999.0,37,-99.99,,,0.00,Acu-Link.com,2013-03-14 04:23:00,
2013-03-13 22:38:00,48.7,24.9,30.06,SSW,202,0.0,-999.0,39,-99.99,,,0.00,Acu-Link.com,2013-03-14 04:38:00,
2013-03-13 22:53:00,48.0,24.8,30.05,South,180,0.0,-999.0,40,-99.99,,,0.00,Acu-Link.com,2013-03-14 04:53:00,
2013-03-13 23:09:00,47.7,24.0,30.05,NE,45,0.0,-999.0,39,-99.99,,,0.00,Acu-Link.com,2013-03-14 05:09:00,
2013-03-13 23:24:00,47.1,24.0,30.05,SSE,157,0.0,-999.0,40,-99.99,,,0.00,Acu-Link.com,2013-03-14 05:24:00,
2013-03-13 23:39:00,46.6,23.6,30.06,SSE,157,0.0,-999.0,40,-99.99,,,0.00,Acu-Link.com,2013-03-14 05:39:00,
2013-03-13 23:54:00,46.0,24.2,30.07,ESE,112,0.0,-999.0,42,-99.99,,,0.00,Acu-Link.com,2013-03-14 05:54:00,